Time;durP1;ratioP1;P1;durP2;ratioP2;P2;SDS_P1;SDS_P2;PMS_P1;PMS_P2;Temp;Humidity;BMP_temperature;BMP_pressure;BME280_temperature;BME280_humidity;BME280_pressure;Samples;Min_cycle;Max_cycle;Signal;HPM_P1;HPM_P2
2023/10/05 12:05:06;;;;;;;11.90;5.43;;;;;;;;;;5070816;27;20474;-76
2023/10/05 12:07:41;;;;;;;8.38;4.45;;;;;;;;;;5102972;27;20067;-76
2023/10/05 12:10:13;;;;;;;11.48;5.60;;;;;;;;;;5041781;27;20053;-77
2023/10/05 12:12:50;;;;;;;15.13;7.65;;;;;;;;;;5041208;27;20072;-76
2023/10/05 12:15:22;;;;;;;11.02;5.43;;;;;;;;;;5042790;27;20064;-77
2023/10/05 12:17:52;;;;;;;11.60;5.18;;;;;;;;;;5044449;27;20048;-76
2023/10/05 12:20:22;;;;;;;11.25;6.05;;;;;;;;;;5044170;27;20064;-78
2023/10/05 12:22:53;;;;;;;7.50;3.70;;;;;;;;;;5044256;27;20410;-77
2023/10/05 12:25:27;;;;;;;6.60;4.32;;;;;;;;;;5042679;27;20148;-79
2023/10/05 12:27:58;;;;;;;10.35;5.30;;;;;;;;;;5042710;27;20040;-76
2023/10/05 12:30:31;;;;;;;7.75;4.47;;;;;;;;;;5044693;28;20060;-77
2023/10/05 12:33:00;;;;;;;;;;;;;;;;;;5043088;28;20415;-78
2023/10/05 12:35:30;;;;;;;8.50;4.50;;;;;;;;;;5044014;28;19925;-81
2023/10/05 12:38:01;;;;;;;12.23;4.75;;;;;;;;;;5046332;27;20053;-77
2023/10/05 12:40:33;;;;;;;13.50;5.18;;;;;;;;;;5046816;27;20060;-78
2023/10/05 12:43:04;;;;;;;11.60;5.53;;;;;;;;;;5059451;27;20037;-75
2023/10/05 12:45:43;;;;;;;10.73;5.45;;;;;;;;;;5041797;27;20526;-77
2023/10/05 12:48:15;;;;;;;11.98;5.45;;;;;;;;;;5043823;27;20049;-78
2023/10/05 13:08:11;;;;;;;10.77;4.65;;;;;;;;;;5046442;28;20466;-82
2023/10/05 13:10:43;;;;;;;10.65;4.95;;;;;;;;;;5046922;28;20064;-80
2023/10/05 13:13:20;;;;;;;12.40;4.93;;;;;;;;;;5046150;28;20509;-79
2023/10/05 13:15:53;;;;;;;10.88;4.72;;;;;;;;;;5045077;28;20045;-79
2023/10/05 13:18:25;;;;;;;12.93;4.93;;;;;;;;;;5044399;28;20053;-79
2023/10/05 13:20:56;;;;;;;12.15;4.68;;;;;;;;;;5045010;28;20495;-80
2023/10/05 13:23:26;;;;;;;11.45;5.22;;;;;;;;;;5045404;27;20045;-81
2023/10/05 13:25:56;;;;;;;9.25;4.65;;;;;;;;;;5043499;28;20061;-79
2023/10/05 13:28:26;;;;;;;11.90;5.25;;;;;;;;;;5043985;28;20042;-80
2023/10/05 13:30:57;;;;;;;10.38;4.30;;;;;;;;;;5045956;28;20041;-77
2023/10/05 13:33:33;;;;;;;8.43;4.68;;;;;;;;;;5045373;28;20046;-80
2023/10/05 13:36:14;;;;;;;9.05;3.97;;;;;;;;;;5045150;28;20037;-82
2023/10/05 13:38:46;;;;;;;13.38;4.72;;;;;;;;;;5045149;28;20037;-79
2023/10/05 13:41:18;;;;;;;14.00;6.25;;;;;;;;;;5045323;28;20044;-80
2023/10/05 13:43:52;;;;;;;16.48;6.20;;;;;;;;;;5046089;28;20048;-83
2023/10/05 13:46:23;;;;;;;15.40;7.13;;;;;;;;;;5042038;27;20406;-79
2023/10/05 13:48:54;;;;;;;16.98;7.38;;;;;;;;;;5044872;27;20486;-79
2023/10/05 13:51:24;;;;;;;14.07;6.95;;;;;;;;;;5044904;27;20054;-80
2023/10/05 13:53:56;;;;;;;13.50;6.78;;;;;;;;;;5044822;27;20049;-79
2023/10/05 13:56:31;;;;;;;16.77;6.93;;;;;;;;;;5048652;27;20552;-80
2023/10/05 13:59:06;;;;;;;13.40;6.53;;;;;;;;;;5114700;27;20073;-79
2023/10/05 14:01:38;;;;;;;17.10;7.40;;;;;;;;;;5044594;27;20045;-78
2023/10/05 14:04:09;;;;;;;13.43;6.88;;;;;;;;;;5042724;27;20037;-81
2023/10/05 14:06:41;;;;;;;13.98;6.80;;;;;;;;;;5040474;27;20060;-80
2023/10/05 14:09:16;;;;;;;13.02;7.53;;;;;;;;;;5029931;28;20053;-80
2023/10/05 14:11:47;;;;;;;13.32;6.45;;;;;;;;;;5028122;28;20068;-80
2023/10/05 14:14:18;;;;;;;13.98;6.97;;;;;;;;;;5030134;28;20483;-80
2023/10/05 14:16:54;;;;;;;11.27;6.32;;;;;;;;;;5028837;28;20064;-81
2023/10/05 14:19:27;;;;;;;14.55;6.20;;;;;;;;;;5029601;28;20053;-79
2023/10/05 14:21:59;;;;;;;14.30;7.00;;;;;;;;;;5029033;28;20057;-78
2023/10/05 14:24:32;;;;;;;12.68;6.68;;;;;;;;;;5024490;28;20049;-79
2023/10/05 14:27:05;;;;;;;18.10;7.00;;;;;;;;;;5010090;28;20380;-79
2023/10/05 14:29:34;;;;;;;;;;;;;;;;;;5010250;28;20050;-80
2023/10/05 14:32:05;;;;;;;11.82;6.40;;;;;;;;;;5033339;28;19928;-80
2023/10/05 14:34:36;;;;;;;12.52;6.28;;;;;;;;;;5033559;28;20061;-79
2023/10/05 14:37:07;;;;;;;11.52;6.53;;;;;;;;;;5029746;28;20037;-78
2023/10/05 14:39:39;;;;;;;11.02;5.53;;;;;;;;;;5032042;28;20049;-78
2023/10/05 14:42:09;;;;;;;12.45;5.82;;;;;;;;;;5031188;28;20052;-78
2023/10/05 14:44:42;;;;;;;12.88;5.82;;;;;;;;;;5032092;28;20084;-81
2023/10/05 14:47:13;;;;;;;12.38;6.45;;;;;;;;;;5031826;28;20041;-79
2023/10/05 14:49:44;;;;;;;10.18;5.80;;;;;;;;;;5032369;28;20052;-82
2023/10/05 14:52:16;;;;;;;10.75;6.10;;;;;;;;;;5010617;28;20499;-80
2023/10/05 14:54:47;;;;;;;15.13;7.45;;;;;;;;;;5028146;28;20045;-81
2023/10/05 14:57:17;;;;;;;11.82;7.03;;;;;;;;;;5025591;28;20062;-79
2023/10/05 14:59:47;;;;;;;10.82;6.10;;;;;;;;;;5027936;28;20037;-79
2023/10/05 15:02:17;;;;;;;10.32;6.30;;;;;;;;;;5029030;28;20065;-77
2023/10/05 15:04:47;;;;;;;9.98;6.00;;;;;;;;;;5029056;28;20042;-78
2023/10/05 15:07:17;;;;;;;11.18;6.30;;;;;;;;;;5028891;27;20053;-78
2023/10/05 15:09:48;;;;;;;10.60;5.93;;;;;;;;;;5046153;27;20043;-78
2023/10/05 15:12:20;;;;;;;10.57;5.38;;;;;;;;;;5132813;27;20070;-78
2023/10/05 15:14:49;;;;;;;11.20;6.45;;;;;;;;;;5079852;27;20046;-80
2023/10/05 15:17:19;;;;;;;10.13;5.70;;;;;;;;;;5025675;28;20057;-78
2023/10/05 15:19:51;;;;;;;8.63;4.10;;;;;;;;;;5027571;28;20045;-78
2023/10/05 15:22:21;;;;;;;6.53;3.50;;;;;;;;;;5025874;27;20403;-77
2023/10/05 15:24:51;;;;;;;6.50;2.92;;;;;;;;;;5028022;28;20050;-78
2023/10/05 15:27:21;;;;;;;5.75;3.38;;;;;;;;;;5040070;28;20499;-78
2023/10/05 15:29:51;;;;;;;5.43;3.00;;;;;;;;;;5009112;28;20475;-78
2023/10/05 15:32:20;;;;;;;5.78;3.25;;;;;;;;;;5009139;28;20046;-79
2023/10/05 15:34:52;;;;;;;7.28;3.08;;;;;;;;;;5008673;28;20054;-78
2023/10/05 15:37:22;;;;;;;8.07;3.13;;;;;;;;;;5025561;28;20042;-82
2023/10/05 15:39:52;;;;;;;5.10;2.95;;;;;;;;;;5028003;28;20056;-78
2023/10/05 15:42:24;;;;;;;4.85;2.92;;;;;;;;;;5028750;28;20050;-80
2023/10/05 15:44:54;;;;;;;;;;;;;;;;;;5051820;28;20056;-78
2023/10/05 15:47:26;;;;;;;6.03;2.38;;;;;;;;;;5050551;28;20420;-81
2023/10/05 15:49:55;;;;;;;4.95;2.40;;;;;;;;;;5050819;28;20048;-78
2023/10/05 15:52:26;;;;;;;5.63;2.70;;;;;;;;;;5051160;28;20048;-78
2023/10/05 15:54:58;;;;;;;4.53;2.38;;;;;;;;;;5050889;28;20478;-80
2023/10/05 15:57:29;;;;;;;8.85;4.82;;;;;;;;;;5050501;28;20045;-77
2023/10/05 15:59:59;;;;;;;10.30;4.35;;;;;;;;;;5050949;28;20048;-76
2023/10/05 16:02:39;;;;;;;7.20;4.30;;;;;;;;;;5038887;28;20045;-77
2023/10/05 16:05:09;;;;;;;8.25;3.92;;;;;;;;;;5029823;28;20064;-77
2023/10/05 16:07:41;;;;;;;8.35;4.15;;;;;;;;;;5018863;28;20061;-77
2023/10/05 16:10:12;;;;;;;;;;;;;;;;;;5029854;28;20049;-76
2023/10/05 16:12:46;;;;;;;7.32;4.05;;;;;;;;;;5028978;28;19929;-80
2023/10/05 16:15:17;;;;;;;6.78;2.97;;;;;;;;;;5029225;28;20514;-77
2023/10/05 16:17:47;;;;;;;5.45;2.95;;;;;;;;;;5028936;28;20049;-77
2023/10/05 16:20:22;;;;;;;5.05;3.22;;;;;;;;;;5029226;28;20045;-76
2023/10/05 16:23:04;;;;;;;6.43;3.42;;;;;;;;;;5029458;28;20065;-77
2023/10/05 16:25:38;;;;;;;5.70;3.25;;;;;;;;;;5029879;28;20491;-76
2023/10/05 16:28:10;;;;;;;5.13;3.03;;;;;;;;;;5028989;28;20522;-76
2023/10/05 16:30:40;;;;;;;5.85;3.30;;;;;;;;;;5029028;28;20046;-76
2023/10/05 16:33:10;;;;;;;6.00;2.88;;;;;;;;;;5029341;28;20147;-76
2023/10/05 16:35:40;;;;;;;5.97;3.33;;;;;;;;;;5028804;28;20060;-79
2023/10/05 16:38:10;;;;;;;6.13;2.65;;;;;;;;;;5029015;28;20053;-77
2023/10/05 16:40:39;;;;;;;7.93;2.78;;;;;;;;;;5022734;28;20065;-77
2023/10/05 16:43:12;;;;;;;4.60;2.35;;;;;;;;;;5009588;28;20053;-79
2023/10/05 16:45:44;;;;;;;6.97;3.38;;;;;;;;;;5009797;28;20411;-78
2023/10/05 16:48:15;;;;;;;3.15;2.00;;;;;;;;;;5009435;28;20640;-76
2023/10/05 16:50:45;;;;;;;6.35;2.42;;;;;;;;;;5009621;28;20042;-76
2023/10/05 16:53:15;;;;;;;4.35;2.83;;;;;;;;;;5009707;28;20514;-76
2023/10/05 16:55:47;;;;;;;5.35;2.65;;;;;;;;;;5028107;28;20045;-76
2023/10/05 16:58:18;;;;;;;6.35;2.97;;;;;;;;;;5029125;28;20513;-76
2023/10/05 17:00:49;;;;;;;4.60;2.67;;;;;;;;;;5028617;28;20041;-77
2023/10/05 17:03:20;;;;;;;4.55;2.42;;;;;;;;;;5028849;28;20042;-78
2023/10/05 17:05:51;;;;;;;4.10;2.60;;;;;;;;;;5026259;28;20395;-76
2023/10/05 17:08:21;;;;;;;3.60;2.40;;;;;;;;;;5028615;28;20048;-76
2023/10/05 17:10:52;;;;;;;3.83;2.45;;;;;;;;;;5025735;28;20068;-76
2023/10/05 17:13:22;;;;;;;3.92;2.20;;;;;;;;;;5028320;28;20097;-77
2023/10/05 17:15:52;;;;;;;4.00;2.53;;;;;;;;;;5028839;28;20049;-78
2023/10/05 17:18:22;;;;;;;7.05;2.90;;;;;;;;;;5028232;28;20046;-77
2023/10/05 17:20:52;;;;;;;4.95;2.70;;;;;;;;;;5026440;28;20050;-79
2023/10/05 17:23:24;;;;;;;5.60;2.33;;;;;;;;;;5028649;28;20499;-77
2023/10/05 17:25:54;;;;;;;5.85;2.22;;;;;;;;;;5028133;28;20058;-77
2023/10/05 17:28:27;;;;;;;9.07;2.13;;;;;;;;;;5028422;28;20038;-81
2023/10/05 17:30:59;;;;;;;3.88;1.65;;;;;;;;;;5026237;28;20491;-79
2023/10/05 17:33:31;;;;;;;;;;;;;;;;;;5027511;28;20064;-76
2023/10/05 17:36:01;;;;;;;3.38;1.98;;;;;;;;;;5019328;28;19928;-79
2023/10/05 17:38:31;;;;;;;3.88;2.08;;;;;;;;;;5028104;28;20038;-76
2023/10/05 17:41:01;;;;;;;4.43;1.83;;;;;;;;;;5028635;28;20042;-77
2023/10/05 17:43:31;;;;;;;2.72;1.58;;;;;;;;;;5029681;28;20047;-78
2023/10/05 17:46:04;;;;;;;3.55;1.80;;;;;;;;;;5028688;28;20053;-77
2023/10/05 17:48:35;;;;;;;2.90;1.90;;;;;;;;;;5031239;28;20053;-78
2023/10/05 17:51:04;;;;;;;5.50;2.17;;;;;;;;;;5031631;28;20395;-77
2023/10/05 17:53:34;;;;;;;3.42;2.15;;;;;;;;;;5031227;28;20042;-80
2023/10/05 17:56:04;;;;;;;3.45;1.75;;;;;;;;;;5031308;28;20054;-78
2023/10/05 17:58:36;;;;;;;3.10;1.83;;;;;;;;;;5039072;27;20050;-80
2023/10/05 18:01:06;;;;;;;5.10;1.73;;;;;;;;;;5135595;27;20497;-79
2023/10/05 18:03:36;;;;;;;4.88;2.05;;;;;;;;;;5136028;27;20039;-78
2023/10/05 18:06:06;;;;;;;4.70;2.13;;;;;;;;;;5136174;27;20043;-76
2023/10/05 18:08:38;;;;;;;5.18;2.78;;;;;;;;;;5136259;27;20039;-76
2023/10/05 18:11:10;;;;;;;4.57;2.88;;;;;;;;;;5136255;27;20051;-76
2023/10/05 18:13:40;;;;;;;6.63;2.50;;;;;;;;;;5136084;27;20039;-77
2023/10/05 18:16:10;;;;;;;6.75;2.80;;;;;;;;;;5055072;27;20045;-76
2023/10/05 18:18:40;;;;;;;4.47;2.65;;;;;;;;;;5031596;28;20045;-76
2023/10/05 18:21:10;;;;;;;7.13;3.08;;;;;;;;;;5031739;28;20042;-77
2023/10/05 18:23:41;;;;;;;4.68;2.55;;;;;;;;;;5031721;28;20049;-76
2023/10/05 18:26:12;;;;;;;5.75;2.58;;;;;;;;;;5030981;28;20052;-79
2023/10/05 18:28:43;;;;;;;4.35;2.78;;;;;;;;;;5030610;28;20119;-80
2023/10/05 18:31:13;;;;;;;6.25;2.88;;;;;;;;;;5030864;28;20053;-78
2023/10/05 18:33:44;;;;;;;3.97;2.45;;;;;;;;;;5028275;28;20064;-76
2023/10/05 18:36:15;;;;;;;3.75;2.38;;;;;;;;;;5030432;28;20041;-78
2023/10/05 18:38:45;;;;;;;4.68;2.50;;;;;;;;;;5030921;28;20056;-81
2023/10/05 18:41:15;;;;;;;3.75;2.55;;;;;;;;;;5030749;28;20049;-78
2023/10/05 18:43:45;;;;;;;4.78;2.85;;;;;;;;;;5030216;28;20042;-79
2023/10/05 18:46:20;;;;;;;4.95;3.05;;;;;;;;;;5031056;28;20050;-78
2023/10/05 18:48:51;;;;;;;5.20;2.85;;;;;;;;;;5030557;28;20042;-81
2023/10/05 18:51:21;;;;;;;6.80;3.20;;;;;;;;;;5031463;28;20052;-82
2023/10/05 18:53:51;;;;;;;4.75;2.65;;;;;;;;;;5030876;28;20046;-83
2023/10/05 18:56:20;;;;;;;5.72;3.08;;;;;;;;;;5031178;28;20092;-78
2023/10/05 18:58:50;;;;;;;5.15;3.28;;;;;;;;;;5031032;28;20406;-82
2023/10/05 19:01:22;;;;;;;5.10;3.28;;;;;;;;;;5030613;28;20053;-79
2023/10/05 19:03:53;;;;;;;4.68;2.72;;;;;;;;;;5031519;28;20060;-78
2023/10/05 19:06:23;;;;;;;16.20;10.27;;;;;;;;;;5031153;28;20415;-79
2023/10/05 19:08:55;;;;;;;8.32;4.40;;;;;;;;;;5030837;28;20057;-76
2023/10/05 19:11:26;;;;;;;6.72;2.92;;;;;;;;;;5030917;28;20049;-78
2023/10/05 19:13:57;;;;;;;5.43;2.60;;;;;;;;;;5030634;28;20046;-76
2023/10/05 19:16:29;;;;;;;5.05;2.92;;;;;;;;;;5030727;28;20052;-78
2023/10/05 19:19:00;;;;;;;12.90;6.30;;;;;;;;;;5036885;27;20053;-78
2023/10/05 19:21:30;;;;;;;24.50;11.23;;;;;;;;;;5030628;28;20529;-80
2023/10/05 19:24:00;;;;;;;12.02;4.97;;;;;;;;;;5030503;28;20052;-80
2023/10/05 19:26:31;;;;;;;9.90;4.95;;;;;;;;;;5030239;28;20045;-77
2023/10/05 19:29:01;;;;;;;4.72;3.00;;;;;;;;;;5030710;28;20076;-78
2023/10/05 19:31:32;;;;;;;9.05;2.95;;;;;;;;;;5030689;28;20049;-78
2023/10/05 19:34:05;;;;;;;4.45;2.55;;;;;;;;;;5030444;28;20045;-79
2023/10/05 19:36:35;;;;;;;5.00;3.17;;;;;;;;;;5029232;28;20045;-79
2023/10/05 19:39:10;;;;;;;5.75;2.65;;;;;;;;;;5029993;28;20037;-79
2023/10/05 19:41:40;;;;;;;6.55;3.10;;;;;;;;;;5030602;28;20049;-81
2023/10/05 19:44:13;;;;;;;6.22;4.05;;;;;;;;;;5030505;28;20041;-81
2023/10/05 19:46:43;;;;;;;6.45;2.95;;;;;;;;;;5030654;28;20076;-77
2023/10/05 19:49:13;;;;;;;7.22;3.22;;;;;;;;;;5030054;28;20052;-81
2023/10/05 19:51:46;;;;;;;6.47;3.08;;;;;;;;;;5030593;28;20045;-78
2023/10/05 19:54:17;;;;;;;5.65;2.72;;;;;;;;;;5105461;27;20049;-78
2023/10/05 19:56:50;;;;;;;7.22;3.67;;;;;;;;;;5134198;27;20058;-78
2023/10/05 19:59:21;;;;;;;7.30;3.13;;;;;;;;;;5047534;27;20507;-79
2023/10/05 20:01:52;;;;;;;6.03;3.03;;;;;;;;;;5029811;28;20033;-79
2023/10/05 20:04:24;;;;;;;9.02;2.95;;;;;;;;;;5067678;27;20039;-79
2023/10/05 20:06:55;;;;;;;4.85;3.08;;;;;;;;;;5091556;27;20057;-79
2023/10/05 20:09:26;;;;;;;6.63;3.40;;;;;;;;;;5030178;28;20049;-79
2023/10/05 20:11:56;;;;;;;6.38;3.13;;;;;;;;;;5028368;28;20048;-81
2023/10/05 20:14:27;;;;;;;7.72;3.38;;;;;;;;;;5029862;28;20045;-79
2023/10/05 20:16:56;;;;;;;4.60;3.13;;;;;;;;;;5029413;28;20048;-79
2023/10/05 20:19:26;;;;;;;4.93;3.15;;;;;;;;;;5009993;28;20046;-80
2023/10/05 20:21:56;;;;;;;8.25;3.42;;;;;;;;;;5010182;28;20057;-79
2023/10/05 20:24:27;;;;;;;6.78;3.17;;;;;;;;;;5010217;28;20053;-83
2023/10/05 20:26:57;;;;;;;12.07;3.35;;;;;;;;;;5010083;28;20053;-82
2023/10/05 20:29:30;;;;;;;5.78;3.00;;;;;;;;;;5030544;28;20041;-82
2023/10/05 20:32:00;;;;;;;8.27;3.45;;;;;;;;;;5029691;28;20053;-77
2023/10/05 20:34:30;;;;;;;9.15;3.28;;;;;;;;;;5029683;28;20046;-81
2023/10/05 20:37:02;;;;;;;9.13;3.20;;;;;;;;;;5029465;28;20399;-79
2023/10/05 20:39:32;;;;;;;5.28;3.15;;;;;;;;;;5029959;28;20056;-78
2023/10/05 20:42:01;;;;;;;5.30;3.03;;;;;;;;;;5029328;28;20049;-78
2023/10/05 20:44:32;;;;;;;5.10;2.90;;;;;;;;;;5030125;28;20056;-80
2023/10/05 20:47:03;;;;;;;6.32;3.60;;;;;;;;;;5029817;28;20049;-79
2023/10/05 20:49:37;;;;;;;6.03;3.53;;;;;;;;;;5033578;28;20525;-79
2023/10/05 20:52:07;;;;;;;7.35;3.20;;;;;;;;;;5035932;28;20545;-82
2023/10/05 20:54:39;;;;;;;8.43;3.10;;;;;;;;;;5036654;28;20042;-79
2023/10/05 20:57:09;;;;;;;7.95;3.58;;;;;;;;;;5034305;28;20046;-79
2023/10/05 20:59:40;;;;;;;6.78;3.15;;;;;;;;;;5034950;28;20041;-79
2023/10/05 21:02:12;;;;;;;9.65;3.05;;;;;;;;;;5029702;28;20050;-79
2023/10/05 21:04:43;;;;;;;4.93;3.10;;;;;;;;;;5030372;28;20045;-79
2023/10/05 21:07:13;;;;;;;9.27;3.30;;;;;;;;;;5029749;28;20415;-79
2023/10/05 21:09:43;;;;;;;9.25;4.05;;;;;;;;;;5029976;28;20052;-79
2023/10/05 21:12:15;;;;;;;9.25;3.13;;;;;;;;;;5029468;28;20050;-82
2023/10/05 21:14:46;;;;;;;7.25;4.55;;;;;;;;;;5029850;28;20045;-85
2023/10/05 21:17:18;;;;;;;7.32;3.63;;;;;;;;;;5030245;28;20042;-80
2023/10/05 21:19:48;;;;;;;7.10;3.42;;;;;;;;;;5033828;28;20060;-82
2023/10/05 21:22:18;;;;;;;7.40;3.55;;;;;;;;;;5031353;28;20056;-82
2023/10/05 21:24:48;;;;;;;10.18;3.40;;;;;;;;;;5032459;28;20045;-80
2023/10/05 21:27:18;;;;;;;7.88;3.53;;;;;;;;;;5032355;28;20056;-81
2023/10/05 21:29:47;;;;;;;7.68;3.60;;;;;;;;;;5030907;28;20487;-79
2023/10/05 21:32:17;;;;;;;8.60;3.45;;;;;;;;;;5023856;28;20058;-80
2023/10/05 21:34:47;;;;;;;6.82;3.22;;;;;;;;;;5048137;27;20056;-79
2023/10/05 21:37:18;;;;;;;6.90;3.40;;;;;;;;;;5090037;27;20053;-79
2023/10/05 21:39:51;;;;;;;10.57;3.80;;;;;;;;;;5102726;27;20044;-85
2023/10/05 21:42:22;;;;;;;7.65;3.03;;;;;;;;;;5056864;27;20046;-79
2023/10/05 21:45:14;;;;;;;7.40;2.90;;;;;;;;;;5075200;27;20060;-79
2023/10/05 21:47:49;;;;;;;5.65;3.30;;;;;;;;;;5030304;28;20053;-85
2023/10/05 21:50:19;;;;;;;5.57;2.90;;;;;;;;;;5050379;28;20390;-79
2023/10/05 21:52:53;;;;;;;4.88;2.90;;;;;;;;;;5049972;28;20059;-81
2023/10/05 21:55:23;;;;;;;5.50;2.70;;;;;;;;;;5050496;28;20044;-80
2023/10/05 21:57:54;;;;;;;9.50;3.08;;;;;;;;;;5050123;28;20498;-80
2023/10/05 22:00:48;;;;;;;8.93;2.80;;;;;;;;;;5050298;28;20037;-81
2023/10/05 22:03:18;;;;;;;7.90;3.33;;;;;;;;;;5049067;28;20045;-80
2023/10/05 22:05:50;;;;;;;9.07;3.20;;;;;;;;;;5050083;28;20068;-81
2023/10/05 22:08:21;;;;;;;8.77;2.97;;;;;;;;;;5052007;27;20052;-82
2023/10/05 22:10:51;;;;;;;6.47;2.63;;;;;;;;;;5049443;28;20063;-80
2023/10/05 22:13:22;;;;;;;8.18;3.30;;;;;;;;;;5050417;28;20459;-79
2023/10/05 22:15:54;;;;;;;8.63;3.72;;;;;;;;;;5050044;28;20052;-80
2023/10/05 22:18:25;;;;;;;8.13;3.45;;;;;;;;;;5116108;27;20407;-82
2023/10/05 22:21:02;;;;;;;6.93;4.15;;;;;;;;;;5133945;27;20058;-79
2023/10/05 22:23:33;;;;;;;6.13;3.17;;;;;;;;;;5133386;27;20043;-80
2023/10/05 22:26:03;;;;;;;8.25;4.05;;;;;;;;;;5133603;27;20070;-81
2023/10/05 22:28:34;;;;;;;10.00;4.78;;;;;;;;;;5133728;27;20047;-80
2023/10/05 22:31:04;;;;;;;8.68;3.95;;;;;;;;;;5133312;27;20090;-78
2023/10/05 22:33:35;;;;;;;8.95;4.45;;;;;;;;;;5134078;27;20413;-83
2023/10/05 22:36:06;;;;;;;6.43;3.33;;;;;;;;;;5132821;27;20743;-85
2023/10/05 22:38:36;;;;;;;7.18;2.70;;;;;;;;;;5134151;27;20043;-84
2023/10/05 22:41:13;;;;;;;6.35;3.17;;;;;;;;;;5134188;27;20523;-81
2023/10/05 22:43:44;;;;;;;4.85;2.75;;;;;;;;;;5134000;27;20055;-80
2023/10/05 22:46:16;;;;;;;5.13;2.97;;;;;;;;;;5133171;27;20400;-84
2023/10/05 22:48:46;;;;;;;6.60;3.60;;;;;;;;;;5055347;27;20041;-81
2023/10/05 22:51:20;;;;;;;12.07;4.13;;;;;;;;;;5049782;28;20395;-82
2023/10/05 22:53:50;;;;;;;7.68;4.32;;;;;;;;;;5049824;28;20043;-82
2023/10/05 22:56:20;;;;;;;7.22;3.92;;;;;;;;;;5049095;28;20049;-81
2023/10/05 22:58:50;;;;;;;11.23;3.47;;;;;;;;;;5031035;28;20506;-79
2023/10/05 23:01:22;;;;;;;9.20;3.72;;;;;;;;;;5030046;27;20053;-79
2023/10/05 23:03:52;;;;;;;5.82;2.78;;;;;;;;;;5029170;28;20053;-79
2023/10/05 23:06:23;;;;;;;9.05;4.00;;;;;;;;;;5039378;28;20510;-79
2023/10/05 23:08:53;;;;;;;7.22;3.53;;;;;;;;;;5052530;28;20063;-80
2023/10/05 23:11:24;;;;;;;8.85;3.03;;;;;;;;;;5050265;28;20045;-79
2023/10/05 23:13:53;;;;;;;10.05;3.47;;;;;;;;;;5052603;28;20056;-79
2023/10/05 23:16:28;;;;;;;15.15;3.70;;;;;;;;;;5051093;28;20052;-81
2023/10/05 23:19:09;;;;;;;9.55;3.72;;;;;;;;;;5031443;27;20049;-81
2023/10/05 23:21:40;;;;;;;6.60;3.58;;;;;;;;;;5029548;28;20483;-79
2023/10/05 23:24:14;;;;;;;12.30;3.80;;;;;;;;;;5029564;27;20045;-80
2023/10/05 23:26:44;;;;;;;10.73;4.60;;;;;;;;;;5030363;28;20045;-81
2023/10/05 23:29:20;;;;;;;10.70;3.75;;;;;;;;;;5038505;28;20060;-79
2023/10/05 23:31:55;;;;;;;11.07;3.95;;;;;;;;;;5036829;28;20056;-81
2023/10/05 23:34:35;;;;;;;9.32;4.25;;;;;;;;;;5052533;28;20067;-82
2023/10/05 23:37:08;;;;;;;10.50;4.07;;;;;;;;;;5051840;27;20049;-80
2023/10/05 23:39:38;;;;;;;13.32;4.45;;;;;;;;;;5051798;28;20067;-80
2023/10/05 23:42:17;;;;;;;10.63;4.43;;;;;;;;;;5051498;28;20056;-79
2023/10/05 23:44:47;;;;;;;9.48;4.38;;;;;;;;;;5032863;27;20046;-82
2023/10/05 23:47:22;;;;;;;7.90;4.40;;;;;;;;;;5028396;28;20495;-82
2023/10/05 23:49:53;;;;;;;9.93;5.18;;;;;;;;;;5028208;28;20058;-78
2023/10/05 23:52:25;;;;;;;7.57;4.75;;;;;;;;;;5028437;27;20056;-78
2023/10/05 23:54:55;;;;;;;15.10;6.93;;;;;;;;;;5025883;28;20050;-78
2023/10/05 23:57:27;;;;;;;12.70;6.15;;;;;;;;;;5028417;27;20041;-79
2023/10/05 23:59:58;;;;;;;10.00;6.00;;;;;;;;;;5025328;28;20068;-80
